Sedov — UELO — position and weather

sailwx.info

Track history (hours):
 
Tides and Currents Weather Stations Pressure Air Temp Water Temp Dewpoint Dewpoint Depression Visibility Wind Speed Wind Dir Waves Ship Positions

Sedov (Russia)

Last reported at 2015-May-28 13:34 UTC. Time now 2015-May-30 06:31 UTC.
Position N 57°04' E 010°48'.

; draft 6.2 m.

Type: Sailing vessel. MMSI: 273510000.

Date/timePositionNaut miles runAvg speedWind from/ knotsBaromVisibWave heightAir tempDewpointWater temp
2015-May-28 13:34N 57°04' E 010°48'8 7.9
2015-May-28 12:32N 57°12' E 010°44'6 6.5
2015-May-28 11:33N 57°18' E 010°42'5 5.1
2015-May-28 10:33N 57°23' E 010°43'6 5.8
2015-May-28 09:33N 57°29' E 010°43'6 5.7
2015-May-28 08:33N 57°35' E 010°44'5 4.9
2015-May-28 07:31N 57°39' E 010°41'1 1.0
2015-May-28 06:33N 57°40' E 010°40'0 0.0
2015-May-28 05:30N 57°40' E 010°40'0 0.0
2015-May-28 04:15N 57°40' E 010°40'0 0.0
2015-May-28 03:30N 57°40' E 010°40'0 0.0
2015-May-28 02:06N 57°40' E 010°40'0 0.0
2015-May-28 01:18N 57°40' E 010°40'0 0.0
2015-May-28 00:33N 57°40' E 010°40'0 0.0
2015-May-27 22:18N 57°40' E 010°40'0 0.0
2015-May-27 20:33N 57°40' E 010°40'0 0.0
2015-May-27 18:09N 57°40' E 010°40'0 0.0
2015-May-27 17:33N 57°40' E 010°40'0 0.0
2015-May-27 16:27N 57°40' E 010°40'0 0.0
2015-May-27 15:33N 57°40' E 010°40'0 0.0
2015-May-27 14:27N 57°40' E 010°40'0 0.0
2015-May-27 07:15N 57°40' E 010°40'0 0.0
2015-May-27 05:30N 57°40' E 010°40'0 0.0
2015-May-27 02:30N 57°40' E 010°40'0 0.0
2015-May-27 01:30N 57°40' E 010°40'0 0.0
2015-May-27 00:24N 57°40' E 010°40'3 3.0
2015-May-26 23:33N 57°41' E 010°45'8 7.8
2015-May-26 22:33N 57°48' E 010°39'9 9.1
2015-May-26 21:33N 57°48' E 010°22'1010.3
2015-May-26 20:33N 57°47' E 010°03'9 9.0
2015-May-26 19:32N 57°45' E 009°47'9 8.9
2015-May-26 18:33N 57°44' E 009°30'10 9.5
2015-May-26 17:33N 57°42' E 009°13'10 9.8
2015-May-26 16:34N 57°40' E 008°55'106 8.7
2015-May-26 04:21N 58°06' E 005°42'  
Track history (hours):
 
Tides and Currents Weather Stations Pressure Air Temp Water Temp Dewpoint Dewpoint Depression Visibility Wind Speed Wind Dir Waves Ship Positions

Sedov (Russia)

Last reported at 2015-May-28 13:34 UTC. Time now 2015-May-30 06:31 UTC.
Position N 57°04' E 010°48'.

; draft 6.2 m.

Type: Sailing vessel. MMSI: 273510000.

Date/timePositionNaut miles runAvg speedWind from/ knotsBaromVisibWave heightAir tempDewpointWater temp
2015-May-28 13:34N 57°04' E 010°48'8 7.9
2015-May-28 12:32N 57°12' E 010°44'6 6.5
2015-May-28 11:33N 57°18' E 010°42'5 5.1
2015-May-28 10:33N 57°23' E 010°43'6 5.8
2015-May-28 09:33N 57°29' E 010°43'6 5.7
2015-May-28 08:33N 57°35' E 010°44'5 4.9
2015-May-28 07:31N 57°39' E 010°41'1 1.0
2015-May-28 06:33N 57°40' E 010°40'0 0.0
2015-May-28 05:30N 57°40' E 010°40'0 0.0
2015-May-28 04:15N 57°40' E 010°40'0 0.0
2015-May-28 03:30N 57°40' E 010°40'0 0.0
2015-May-28 02:06N 57°40' E 010°40'0 0.0
2015-May-28 01:18N 57°40' E 010°40'0 0.0
2015-May-28 00:33N 57°40' E 010°40'0 0.0
2015-May-27 22:18N 57°40' E 010°40'0 0.0
2015-May-27 20:33N 57°40' E 010°40'0 0.0
2015-May-27 18:09N 57°40' E 010°40'0 0.0
2015-May-27 17:33N 57°40' E 010°40'0 0.0
2015-May-27 16:27N 57°40' E 010°40'0 0.0
2015-May-27 15:33N 57°40' E 010°40'0 0.0
2015-May-27 14:27N 57°40' E 010°40'0 0.0
2015-May-27 07:15N 57°40' E 010°40'0 0.0
2015-May-27 05:30N 57°40' E 010°40'0 0.0
2015-May-27 02:30N 57°40' E 010°40'0 0.0
2015-May-27 01:30N 57°40' E 010°40'0 0.0
2015-May-27 00:24N 57°40' E 010°40'3 3.0
2015-May-26 23:33N 57°41' E 010°45'8 7.8
2015-May-26 22:33N 57°48' E 010°39'9 9.1
2015-May-26 21:33N 57°48' E 010°22'1010.3
2015-May-26 20:33N 57°47' E 010°03'9 9.0
2015-May-26 19:32N 57°45' E 009°47'9 8.9
2015-May-26 18:33N 57°44' E 009°30'10 9.5
2015-May-26 17:33N 57°42' E 009°13'10 9.8
2015-May-26 16:34N 57°40' E 008°55'106 8.7
2015-May-26 04:21N 58°06' E 005°42'  

Dump ship's entire track history